Time;durP1;ratioP1;P1;durP2;ratioP2;P2;SDS_P1;SDS_P2;PMS_P1;PMS_P2;Temp;Humidity;BMP_temperature;BMP_pressure;BME280_temperature;BME280_humidity;BME280_pressure;Samples;Min_cycle;Max_cycle;Signal;HPM_P1;HPM_P2
2022/04/01 00:00:31;;;;;;;6.22;3.38;;;1.40;99.90;;;;;;5006029;28;20515;-74
2022/04/01 00:02:57;;;;;;;5.28;3.15;;;1.40;99.90;;;;;;5012110;28;20033;-74
2022/04/01 00:05:22;;;;;;;5.75;3.15;;;1.40;99.90;;;;;;5013750;28;20040;-75
2022/04/01 00:07:48;;;;;;;7.90;2.97;;;1.40;99.90;;;;;;5012953;28;20072;-75
2022/04/01 00:10:14;;;;;;;8.82;3.10;;;1.40;99.90;;;;;;5018898;28;20046;-75
2022/04/01 00:12:41;;;;;;;7.90;4.10;;;1.40;99.90;;;;;;5008622;28;20038;-76
2022/04/01 00:15:07;;;;;;;5.47;2.97;;;1.50;99.90;;;;;;5010528;28;20033;-75
2022/04/01 00:17:33;;;;;;;9.93;3.35;;;1.40;99.90;;;;;;5020343;28;20079;-74
2022/04/01 00:19:58;;;;;;;7.10;3.33;;;1.40;99.90;;;;;;5017930;28;20042;-75
2022/04/01 00:22:24;;;;;;;7.10;2.65;;;1.40;99.90;;;;;;5010469;28;20064;-74
2022/04/01 00:24:49;;;;;;;6.90;3.00;;;1.40;99.90;;;;;;5011601;28;20025;-78
2022/04/01 00:27:15;;;;;;;3.60;2.65;;;1.40;99.90;;;;;;5014756;28;20040;-73
2022/04/01 00:29:41;;;;;;;5.55;3.10;;;1.40;99.90;;;;;;5011535;28;20123;-76
2022/04/01 00:32:07;;;;;;;5.13;2.97;;;1.40;99.90;;;;;;5013147;28;20459;-75
2022/04/01 00:34:34;;;;;;;5.30;3.30;;;1.40;99.90;;;;;;5012650;28;20577;-76
2022/04/01 00:37:01;;;;;;;4.47;2.22;;;1.40;99.90;;;;;;5031274;28;20038;-77
2022/04/01 00:39:30;;;;;;;3.40;2.25;;;1.40;99.90;;;;;;5012273;28;20037;-77
2022/04/01 00:41:57;;;;;;;7.40;2.70;;;1.40;99.90;;;;;;5015735;28;20029;-75
2022/04/01 00:44:28;;;;;;;5.50;2.65;;;1.30;99.90;;;;;;5018296;28;20240;-76
2022/04/01 00:47:00;;;;;;;5.20;2.67;;;1.40;99.90;;;;;;5026529;28;20118;-77
2022/04/01 00:49:27;;;;;;;5.80;2.33;;;1.30;99.90;;;;;;5020618;28;20026;-76
2022/04/01 00:51:55;;;;;;;7.70;2.47;;;1.40;99.90;;;;;;5025585;28;20037;-73
2022/04/01 00:54:21;;;;;;;3.47;2.30;;;1.40;99.90;;;;;;5012216;28;20063;-76
2022/04/01 00:56:47;;;;;;;5.13;1.88;;;1.40;99.90;;;;;;5012688;28;20140;-76
2022/04/01 00:59:12;;;;;;;3.25;1.80;;;1.40;99.90;;;;;;5012796;28;20538;-77
2022/04/01 01:01:40;;;;;;;2.75;2.08;;;1.40;99.90;;;;;;5014184;28;20057;-75
2022/04/01 01:04:08;;;;;;;3.90;2.45;;;1.30;99.90;;;;;;5012641;28;20815;-75
2022/04/01 01:06:38;;;;;;;4.78;2.25;;;1.40;99.90;;;;;;5013508;28;20454;-75
2022/04/01 01:09:04;;;;;;;3.80;2.03;;;1.30;99.90;;;;;;5013045;28;20042;-76
2022/04/01 01:11:35;;;;;;;4.75;2.20;;;1.40;99.90;;;;;;5013568;28;20061;-76
2022/04/01 01:14:05;;;;;;;5.60;2.20;;;1.40;99.90;;;;;;5012046;28;21497;-75
2022/04/01 01:16:31;;;;;;;3.97;2.05;;;1.40;99.90;;;;;;5010031;28;20033;-77
2022/04/01 01:19:05;;;;;;;4.30;1.70;;;1.30;99.90;;;;;;5012273;28;20084;-75
2022/04/01 01:21:33;;;;;;;4.82;2.20;;;1.30;99.90;;;;;;5016739;28;20025;-75
2022/04/01 01:24:01;;;;;;;5.00;2.40;;;1.30;99.90;;;;;;5001293;28;20500;-77
2022/04/01 01:26:27;;;;;;;3.63;2.03;;;1.30;99.90;;;;;;5012299;28;20444;-76
2022/04/01 01:28:55;;;;;;;1.88;1.63;;;1.40;99.90;;;;;;5012683;28;20061;-78
2022/04/01 01:31:20;;;;;;;5.47;2.35;;;1.40;99.90;;;;;;5016127;28;20034;-78
2022/04/01 01:33:46;;;;;;;2.92;1.70;;;1.40;99.90;;;;;;5012535;28;20042;-76
2022/04/01 01:36:12;;;;;;;4.53;2.38;;;1.40;99.90;;;;;;5013279;28;20060;-76
2022/04/01 01:38:38;;;;;;;6.43;2.75;;;1.40;99.90;;;;;;5011505;28;20478;-75
2022/04/01 01:41:04;;;;;;;7.22;2.38;;;1.40;99.90;;;;;;5012397;28;20029;-78
2022/04/01 01:43:29;;;;;;;7.07;2.38;;;1.40;99.90;;;;;;5012819;28;20386;-75
2022/04/01 01:45:55;;;;;;;4.70;2.88;;;1.40;99.90;;;;;;5012513;28;20108;-76
2022/04/01 01:48:22;;;;;;;3.03;2.10;;;1.40;99.90;;;;;;4998702;28;20064;-75
2022/04/01 01:56:17;;;;;;;7.85;2.38;;;1.30;99.90;;;;;;4993202;28;20045;-75
2022/04/01 01:58:43;;;;;;;5.65;2.42;;;1.30;99.90;;;;;;5001766;28;20072;-77
2022/04/01 02:01:09;;;;;;;4.30;3.15;;;1.30;99.90;;;;;;5012686;28;20030;-75
2022/04/01 02:03:34;;;;;;;3.35;1.98;;;1.40;99.90;;;;;;5012746;28;20040;-75
2022/04/01 02:06:00;;;;;;;4.85;2.78;;;1.40;99.90;;;;;;5012032;28;20470;-75
2022/04/01 02:08:25;;;;;;;4.20;2.63;;;1.40;99.90;;;;;;5012641;28;20120;-75
2022/04/01 02:10:51;;;;;;;5.03;2.33;;;1.40;99.90;;;;;;5011411;28;20113;-75
2022/04/01 02:13:17;;;;;;;3.17;2.20;;;1.40;99.90;;;;;;5014879;28;20038;-75
2022/04/01 02:15:43;;;;;;;3.28;1.73;;;1.40;99.90;;;;;;5014634;28;20042;-75
2022/04/01 02:18:10;;;;;;;3.33;2.08;;;1.40;99.90;;;;;;5013211;28;20104;-75
2022/04/01 02:20:36;;;;;;;4.28;2.38;;;1.40;99.90;;;;;;5012282;28;20033;-75
2022/04/01 02:23:03;;;;;;;3.20;1.75;;;1.40;99.90;;;;;;5012605;28;20030;-76
2022/04/01 02:25:30;;;;;;;4.53;2.20;;;1.40;99.90;;;;;;5012437;28;20057;-75
2022/04/01 02:27:57;;;;;;;6.25;2.63;;;1.40;99.90;;;;;;5012276;28;20029;-75
2022/04/01 02:30:23;;;;;;;4.07;2.30;;;1.50;99.90;;;;;;5011634;28;20197;-75
2022/04/01 02:32:48;;;;;;;7.57;2.67;;;1.50;99.90;;;;;;5012456;28;20386;-75
2022/04/01 02:35:14;;;;;;;5.50;2.95;;;1.50;99.90;;;;;;5012411;28;20437;-75
2022/04/01 02:37:40;;;;;;;5.65;2.25;;;1.50;99.90;;;;;;5012738;28;20113;-74
2022/04/01 02:40:07;;;;;;;6.00;2.70;;;1.50;99.90;;;;;;5011472;28;20033;-75
2022/04/01 02:42:33;;;;;;;9.52;2.78;;;1.50;99.90;;;;;;5012967;28;20041;-75
2022/04/01 02:44:58;;;;;;;7.28;2.72;;;1.50;99.90;;;;;;5014763;28;20034;-75
2022/04/01 02:47:27;;;;;;;7.72;2.00;;;1.50;99.90;;;;;;5014262;28;20030;-75
2022/04/01 02:49:54;;;;;;;3.30;2.25;;;1.50;99.90;;;;;;5015924;28;20034;-74
2022/04/01 02:52:20;;;;;;;8.63;2.53;;;1.50;99.90;;;;;;5015799;28;20073;-74
2022/04/01 02:54:46;;;;;;;4.63;2.20;;;1.50;99.90;;;;;;5015618;28;20064;-75
2022/04/01 02:57:13;;;;;;;5.82;2.70;;;1.50;99.90;;;;;;5014729;28;20450;-75
2022/04/01 02:59:39;;;;;;;5.60;2.42;;;1.50;99.90;;;;;;5014923;28;20114;-75
2022/04/01 03:02:05;;;;;;;3.58;1.95;;;1.50;99.90;;;;;;5014869;28;20446;-74
2022/04/01 03:04:30;;;;;;;6.38;2.45;;;1.50;99.90;;;;;;5015622;28;20022;-75
2022/04/01 03:06:56;;;;;;;7.68;2.58;;;1.50;99.90;;;;;;5015388;28;20045;-75
2022/04/01 03:09:22;;;;;;;3.80;1.77;;;1.40;99.90;;;;;;5015293;28;20030;-74
2022/04/01 03:11:47;;;;;;;9.65;3.33;;;1.50;99.90;;;;;;5014555;28;20068;-74
2022/04/01 03:14:13;;;;;;;6.93;2.70;;;1.50;99.90;;;;;;5014919;28;20120;-75
2022/04/01 03:16:39;;;;;;;6.10;2.45;;;1.50;99.90;;;;;;5014326;28;20088;-74
2022/04/01 03:19:08;;;;;;;3.38;2.53;;;1.60;99.90;;;;;;5015247;28;20404;-75
2022/04/01 03:21:35;;;;;;;7.57;2.45;;;1.60;99.90;;;;;;5015204;28;20060;-75
2022/04/01 03:24:02;;;;;;;7.50;2.55;;;1.60;99.90;;;;;;5014755;28;20041;-75
2022/04/01 03:26:28;;;;;;;6.28;2.03;;;1.70;99.90;;;;;;5015534;28;20078;-75
2022/04/01 03:28:55;;;;;;;6.20;2.42;;;1.70;99.90;;;;;;5015086;28;20030;-75
2022/04/01 03:31:21;;;;;;;4.28;2.78;;;1.70;99.90;;;;;;5014662;28;20464;-76
2022/04/01 03:33:46;;;;;;;3.92;1.52;;;1.70;99.90;;;;;;5014847;28;20038;-75
2022/04/01 03:36:13;;;;;;;5.10;1.98;;;1.70;99.90;;;;;;5015179;28;20041;-76
2022/04/01 03:38:39;;;;;;;3.58;1.63;;;1.70;99.90;;;;;;5014989;28;20022;-75
2022/04/01 03:41:06;;;;;;;4.60;1.88;;;1.70;99.90;;;;;;5013649;28;20116;-76
2022/04/01 03:43:34;;;;;;;5.50;2.05;;;1.80;99.90;;;;;;5016856;28;20088;-74
2022/04/01 03:46:06;;;;;;;4.30;1.73;;;1.80;99.90;;;;;;5024169;28;20037;-75
2022/04/01 03:48:45;;;;;;;5.22;1.83;;;1.80;99.90;;;;;;5014593;28;20026;-75
2022/04/01 03:51:16;;;;;;;3.63;1.67;;;1.80;99.90;;;;;;5014713;28;20042;-75
2022/04/01 03:53:52;;;;;;;1.90;1.30;;;1.80;99.90;;;;;;5013369;28;20042;-75
2022/04/01 03:56:23;;;;;;;4.32;1.55;;;1.90;99.90;;;;;;5013335;28;20092;-74
2022/04/01 03:58:50;;;;;;;3.65;1.88;;;1.90;99.90;;;;;;5014005;28;20121;-74
2022/04/01 04:01:15;;;;;;;4.47;1.23;;;1.90;99.90;;;;;;5014247;28;20066;-73
2022/04/01 04:03:44;;;;;;;3.20;1.27;;;1.90;99.90;;;;;;5014637;28;20573;-74
2022/04/01 04:06:10;;;;;;;4.13;1.30;;;1.90;99.90;;;;;;5013948;28;20038;-74
2022/04/01 04:08:37;;;;;;;1.60;1.33;;;1.90;99.90;;;;;;5014144;28;20029;-74
2022/04/01 04:11:04;;;;;;;4.43;1.60;;;1.90;99.90;;;;;;5013549;28;20065;-76
2022/04/01 04:13:31;;;;;;;7.57;1.52;;;1.90;99.90;;;;;;5013787;28;20111;-75
2022/04/01 04:16:04;;;;;;;4.95;1.75;;;1.90;99.90;;;;;;5013763;28;20120;-75
2022/04/01 04:18:40;;;;;;;2.70;1.23;;;1.90;99.90;;;;;;5012079;28;20060;-73
2022/04/01 04:21:27;;;;;;;3.17;1.65;;;1.90;99.90;;;;;;5014155;28;20076;-74
2022/04/01 04:24:01;;;;;;;4.60;1.55;;;2.00;99.90;;;;;;5013736;28;20026;-73
2022/04/01 04:26:35;;;;;;;2.38;1.35;;;2.00;99.90;;;;;;5012983;28;20034;-75
2022/04/01 04:29:11;;;;;;;2.92;1.52;;;2.00;99.90;;;;;;4998245;28;20117;-74
2022/04/01 04:31:42;;;;;;;3.50;1.33;;;2.10;99.90;;;;;;4995439;28;20026;-74
2022/04/01 04:34:10;;;;;;;4.80;2.33;;;2.10;99.90;;;;;;5013274;28;20383;-75
2022/04/01 04:36:39;;;;;;;2.60;1.35;;;2.10;99.90;;;;;;5013571;28;20466;-76
2022/04/01 04:39:08;;;;;;;6.78;1.80;;;2.10;99.90;;;;;;5013373;28;20037;-73
2022/04/01 04:41:34;;;;;;;5.13;1.63;;;2.00;99.90;;;;;;5013935;28;20493;-75
2022/04/01 04:44:01;;;;;;;3.05;1.58;;;2.10;99.90;;;;;;5013398;28;20030;-73
2022/04/01 04:46:27;;;;;;;4.22;1.38;;;2.10;99.90;;;;;;5012267;28;20041;-74
2022/04/01 04:48:54;;;;;;;3.60;1.58;;;2.10;99.90;;;;;;5012876;28;20482;-75
2022/04/01 04:51:28;;;;;;;5.05;1.48;;;2.10;99.90;;;;;;5013149;28;20038;-74
2022/04/01 04:53:57;;;;;;;4.85;1.42;;;2.10;99.90;;;;;;5012257;28;20129;-73
2022/04/01 04:56:25;;;;;;;4.20;1.73;;;2.20;99.90;;;;;;5013834;28;20026;-72
2022/04/01 04:58:53;;;;;;;3.55;2.00;;;2.20;99.90;;;;;;5013137;28;20033;-74
2022/04/01 05:01:42;;;;;;;5.50;2.13;;;2.20;99.90;;;;;;5013581;28;20526;-75
2022/04/01 05:04:26;;;;;;;3.13;1.30;;;2.20;99.90;;;;;;5010827;28;20034;-73
2022/04/01 05:07:10;;;;;;;4.30;1.88;;;2.20;99.90;;;;;;5013013;28;20038;-73
2022/04/01 05:09:52;;;;;;;6.20;1.88;;;2.20;99.90;;;;;;5002283;28;20548;-74
2022/04/01 05:12:40;;;;;;;8.10;2.00;;;2.30;99.90;;;;;;5011747;28;20470;-72
2022/04/01 05:15:08;;;;;;;4.63;1.88;;;2.30;99.90;;;;;;5001224;28;20136;-74
2022/04/01 05:17:35;;;;;;;4.07;1.95;;;2.30;99.90;;;;;;5017664;28;20026;-74
2022/04/01 05:20:03;;;;;;;3.58;1.45;;;2.30;99.90;;;;;;5010348;28;20034;-74
2022/04/01 05:22:48;;;;;;;3.90;1.20;;;2.30;99.90;;;;;;5015868;28;20058;-73
2022/04/01 05:25:19;;;;;;;4.00;1.42;;;2.40;99.90;;;;;;4998438;28;20107;-72
2022/04/01 05:27:49;;;;;;;6.20;1.52;;;2.40;99.90;;;;;;5013161;28;20076;-74
2022/04/01 05:30:16;;;;;;;3.90;1.38;;;2.40;99.90;;;;;;5012334;28;20076;-72
2022/04/01 05:33:00;;;;;;;2.25;1.27;;;2.30;99.90;;;;;;5014799;28;20029;-72
2022/04/01 05:35:29;;;;;;;3.03;1.30;;;2.30;99.90;;;;;;5012283;28;20030;-75
2022/04/01 05:37:57;;;;;;;1.30;0.88;;;2.40;99.90;;;;;;5011656;28;20030;-74
2022/04/01 05:40:23;;;;;;;3.58;1.40;;;2.40;99.90;;;;;;5012225;28;20058;-71
2022/04/01 05:42:52;;;;;;;4.50;2.25;;;2.40;99.90;;;;;;5016493;28;20046;-72
2022/04/01 05:45:19;;;;;;;3.42;1.20;;;2.40;99.90;;;;;;5017813;28;20036;-71
2022/04/01 05:47:47;;;;;;;2.80;1.23;;;2.40;99.90;;;;;;5019398;28;20529;-71
2022/04/01 05:50:18;;;;;;;2.40;1.23;;;2.50;99.90;;;;;;5012392;28;20390;-71
2022/04/01 05:52:50;;;;;;;5.75;1.23;;;2.50;99.90;;;;;;5018278;28;20447;-72
2022/04/01 05:55:22;;;;;;;4.00;1.52;;;2.50;99.90;;;;;;5015256;28;20482;-70
2022/04/01 05:57:48;;;;;;;3.05;1.75;;;2.50;99.90;;;;;;5019427;28;20026;-75
2022/04/01 06:00:14;;;;;;;4.82;2.03;;;2.60;99.90;;;;;;5012347;28;20734;-74
2022/04/01 06:03:01;;;;;;;3.35;1.85;;;2.50;99.90;;;;;;5012962;28;20524;-74
2022/04/01 06:05:33;;;;;;;2.55;1.40;;;2.60;99.90;;;;;;5010890;28;20063;-72
2022/04/01 06:08:21;;;;;;;3.25;1.50;;;2.60;99.90;;;;;;5017698;28;20052;-71
2022/04/01 06:11:01;;;;;;;7.43;1.45;;;2.60;99.90;;;;;;5016123;28;20370;-72
2022/04/01 06:13:39;;;;;;;3.80;1.70;;;2.60;99.90;;;;;;5012433;28;20096;-73
2022/04/01 06:16:27;;;;;;;4.15;1.23;;;2.60;99.90;;;;;;4993229;28;20447;-70
2022/04/01 06:19:00;;;;;;;1.50;0.85;;;2.70;99.90;;;;;;5016277;28;20030;-71
2022/04/01 06:21:27;;;;;;;3.42;1.48;;;2.70;99.90;;;;;;5016186;28;20111;-76
2022/04/01 06:24:11;;;;;;;2.40;1.23;;;2.70;99.90;;;;;;5015987;28;20033;-74
2022/04/01 06:26:50;;;;;;;2.38;1.15;;;2.70;99.90;;;;;;5010243;28;20045;-71
2022/04/01 06:29:39;;;;;;;2.08;1.08;;;2.80;99.90;;;;;;5014372;28;20160;-70
2022/04/01 06:32:49;;;;;;;3.60;1.35;;;2.80;99.90;;;;;;5013606;28;20030;-73
2022/04/01 06:35:37;;;;;;;2.05;1.25;;;2.80;99.90;;;;;;4993661;28;20049;-73
2022/04/01 06:38:05;;;;;;;3.03;1.05;;;2.90;99.90;;;;;;5014246;28;20037;-73
2022/04/01 06:40:55;;;;;;;2.63;1.50;;;2.90;99.90;;;;;;5015701;28;20033;-71
2022/04/01 06:43:22;;;;;;;3.15;1.45;;;3.00;99.90;;;;;;5015690;28;20052;-75
2022/04/01 06:45:48;;;;;;;3.15;2.08;;;3.00;99.90;;;;;;5019873;28;20034;-72
2022/04/01 06:48:13;;;;;;;2.05;0.82;;;3.00;99.90;;;;;;5024816;28;20038;-74
2022/04/01 06:50:41;;;;;;;4.97;1.80;;;3.00;99.90;;;;;;5015090;28;20066;-72
2022/04/01 06:53:06;;;;;;;3.55;1.65;;;3.10;99.90;;;;;;5013804;28;20482;-74
2022/04/01 06:55:32;;;;;;;5.88;1.85;;;3.10;99.90;;;;;;5004224;28;20101;-76
2022/04/01 06:57:58;;;;;;;2.33;1.10;;;3.10;99.90;;;;;;5013898;28;20030;-75
2022/04/01 07:00:26;;;;;;;2.58;1.20;;;3.20;99.90;;;;;;5015065;28;20042;-76
2022/04/01 07:02:51;;;;;;;4.45;2.08;;;3.20;99.90;;;;;;5015404;28;20021;-72
2022/04/01 07:05:18;;;;;;;6.25;2.28;;;3.30;99.90;;;;;;5015142;28;20030;-74
2022/04/01 07:07:44;;;;;;;6.90;1.20;;;3.30;99.90;;;;;;5014770;28;20834;-74
2022/04/01 07:10:13;;;;;;;1.77;1.10;;;3.40;99.90;;;;;;5014459;28;20030;-72
2022/04/01 07:12:39;;;;;;;5.40;1.33;;;3.40;99.90;;;;;;5012923;28;20386;-70
2022/04/01 07:15:07;;;;;;;3.20;1.60;;;3.50;99.90;;;;;;5014892;28;20113;-72
2022/04/01 07:17:33;;;;;;;3.58;1.40;;;3.50;99.90;;;;;;5013272;28;20026;-72
2022/04/01 07:19:58;;;;;;;3.72;1.40;;;3.60;99.90;;;;;;5014808;28;20048;-73
2022/04/01 07:22:25;;;;;;;2.35;1.30;;;3.60;99.90;;;;;;5015712;28;20034;-74
2022/04/01 07:24:50;;;;;;;3.90;1.20;;;3.70;99.90;;;;;;5015367;28;20034;-71
2022/04/01 07:27:17;;;;;;;2.17;1.10;;;3.70;99.90;;;;;;5000325;28;20034;-75
2022/04/01 07:29:43;;;;;;;2.05;1.10;;;3.90;99.90;;;;;;4995545;28;20085;-75
2022/04/01 07:34:53;;;;;;;2.53;1.35;;;4.30;99.90;;;;;;5015153;28;20053;-73
2022/04/01 07:37:23;;;;;;;2.10;1.00;;;4.60;99.90;;;;;;5015156;28;20022;-72
2022/04/01 07:39:51;;;;;;;5.35;1.30;;;4.70;99.90;;;;;;5013035;28;20033;-73
2022/04/01 07:42:18;;;;;;;2.72;1.27;;;4.90;99.90;;;;;;5015182;28;20036;-72
2022/04/01 07:44:44;;;;;;;0.80;0.68;;;5.00;99.90;;;;;;5022050;28;20025;-72
2022/04/01 07:47:10;;;;;;;1.88;1.00;;;5.00;99.90;;;;;;5018383;28;20105;-70
2022/04/01 07:49:37;;;;;;;2.40;1.00;;;4.90;99.90;;;;;;5030469;28;20041;-75
2022/04/01 07:52:04;;;;;;;3.38;1.10;;;5.00;99.90;;;;;;5015445;28;20030;-73
2022/04/01 07:54:30;;;;;;;3.75;1.20;;;5.00;99.90;;;;;;5008967;28;20045;-73
2022/04/01 07:56:56;;;;;;;4.15;1.20;;;5.00;99.90;;;;;;5014917;28;20378;-73
2022/04/01 07:59:24;;;;;;;3.45;1.42;;;4.90;99.90;;;;;;5030673;28;20022;-74
2022/04/01 08:01:49;;;;;;;4.18;1.70;;;4.90;99.90;;;;;;5013836;28;20014;-71
2022/04/01 08:04:15;;;;;;;3.20;1.33;;;5.00;99.90;;;;;;5018165;28;20051;-71
2022/04/01 08:06:40;;;;;;;4.72;1.45;;;5.00;99.90;;;;;;5025837;28;20389;-75
2022/04/01 08:09:06;;;;;;;2.67;1.65;;;5.10;99.90;;;;;;5032789;28;20541;-71
2022/04/01 08:11:32;;;;;;;2.67;1.45;;;5.00;99.90;;;;;;5045478;28;20025;-71
2022/04/01 08:13:57;;;;;;;3.92;1.48;;;5.10;99.90;;;;;;5024764;28;20076;-71
2022/04/01 08:16:23;;;;;;;1.65;1.02;;;5.00;99.90;;;;;;5014658;28;20470;-71
2022/04/01 08:18:49;;;;;;;4.55;1.67;;;5.10;99.90;;;;;;5027409;28;20378;-71
2022/04/01 08:21:16;;;;;;;1.38;1.25;;;5.00;99.90;;;;;;5034469;28;20500;-70
2022/04/01 08:23:42;;;;;;;2.80;1.40;;;5.00;99.90;;;;;;5034093;28;20029;-70
2022/04/01 08:26:07;;;;;;;3.05;1.15;;;5.00;99.90;;;;;;5025401;28;20057;-70
2022/04/01 08:28:34;;;;;;;2.95;1.30;;;5.10;99.90;;;;;;5013905;28;20061;-70
2022/04/01 08:30:59;;;;;;;2.97;1.15;;;5.20;99.90;;;;;;5026912;28;20033;-70
2022/04/01 08:33:26;;;;;;;3.22;1.40;;;5.40;99.90;;;;;;5033902;28;20392;-70
2022/04/01 08:35:52;;;;;;;2.15;1.30;;;5.60;99.90;;;;;;5033638;28;20064;-70
2022/04/01 08:38:18;;;;;;;5.72;1.55;;;6.10;99.90;;;;;;5033334;28;20400;-70
2022/04/01 08:40:44;;;;;;;3.80;1.35;;;6.60;99.90;;;;;;5032805;28;20026;-71
2022/04/01 08:43:10;;;;;;;3.10;1.48;;;7.00;99.90;;;;;;5019892;28;20482;-70
2022/04/01 08:45:37;;;;;;;3.00;1.23;;;7.40;99.90;;;;;;5010690;28;20116;-70
2022/04/01 08:48:04;;;;;;;1.75;0.93;;;7.50;99.90;;;;;;5013884;28;20034;-70
2022/04/01 08:50:30;;;;;;;3.72;1.00;;;7.50;99.90;;;;;;5013726;28;20054;-70
2022/04/01 08:52:56;;;;;;;2.58;1.25;;;7.60;99.70;;;;;;5013601;28;21912;-70
2022/04/01 08:55:22;;;;;;;3.25;1.25;;;7.60;99.90;;;;;;5013434;28;20021;-70
2022/04/01 08:57:48;;;;;;;3.95;1.38;;;7.50;99.40;;;;;;5012532;28;20018;-69
2022/04/01 09:00:14;;;;;;;2.22;1.15;;;7.40;99.90;;;;;;5013225;28;20052;-69
2022/04/01 09:02:40;;;;;;;2.33;1.20;;;7.50;99.90;;;;;;5013387;28;20080;-69
2022/04/01 09:05:08;;;;;;;3.17;1.30;;;7.60;99.80;;;;;;5013290;28;20042;-69
2022/04/01 09:07:34;;;;;;;3.88;1.50;;;7.80;99.70;;;;;;5013180;28;20080;-69
2022/04/01 09:10:07;;;;;;;3.80;1.20;;;8.00;99.20;;;;;;5013033;28;20029;-68
2022/04/01 09:12:34;;;;;;;3.17;1.23;;;8.20;98.70;;;;;;5013316;28;20108;-69
2022/04/01 09:15:01;;;;;;;4.78;1.65;;;8.40;99.10;;;;;;5012628;28;20069;-69
2022/04/01 09:18:02;;;;;;;1.33;0.85;;;8.70;98.60;;;;;;5012746;28;20029;-69
2022/04/01 09:20:28;;;;;;;2.05;1.08;;;9.00;97.90;;;;;;4991200;28;20502;-69
2022/04/01 09:22:58;;;;;;;3.78;1.35;;;9.30;97.50;;;;;;5002496;28;20065;-69
2022/04/01 09:25:24;;;;;;;4.78;2.45;;;9.60;97.60;;;;;;5010006;28;20042;-67
2022/04/01 09:27:53;;;;;;;5.53;2.05;;;9.90;96.40;;;;;;5001549;28;20088;-67
2022/04/01 09:30:22;;;;;;;4.57;1.85;;;9.80;96.40;;;;;;5011550;28;20037;-67
2022/04/01 09:32:49;;;;;;;4.85;1.52;;;9.90;96.40;;;;;;5011333;28;20413;-68
2022/04/01 09:35:16;;;;;;;4.32;1.27;;;9.80;96.70;;;;;;5011331;28;20065;-69
2022/04/01 09:37:42;;;;;;;3.33;1.38;;;10.10;96.70;;;;;;5013018;28;20029;-68
2022/04/01 09:40:10;;;;;;;4.20;1.52;;;10.30;96.20;;;;;;5012162;28;20038;-68
2022/04/01 09:42:36;;;;;;;4.07;1.70;;;10.20;95.30;;;;;;5012396;28;20394;-68
2022/04/01 09:45:03;;;;;;;3.88;1.35;;;10.00;96.10;;;;;;5012595;28;20038;-68
2022/04/01 09:47:36;;;;;;;4.60;1.65;;;9.90;96.20;;;;;;5020297;28;20045;-68
2022/04/01 09:50:09;;;;;;;5.93;1.33;;;10.10;95.60;;;;;;5013094;28;20030;-68
2022/04/01 09:52:36;;;;;;;4.57;1.23;;;10.40;96.30;;;;;;5011559;28;20022;-68
2022/04/01 09:55:02;;;;;;;3.35;1.15;;;10.70;94.50;;;;;;5012445;28;20486;-68
2022/04/01 09:57:28;;;;;;;1.30;0.90;;;10.80;95.20;;;;;;5012508;28;20042;-68
2022/04/01 09:59:54;;;;;;;2.63;1.10;;;10.80;94.80;;;;;;5011075;28;20022;-68
2022/04/01 10:02:20;;;;;;;3.97;1.25;;;11.10;93.90;;;;;;4997003;28;20032;-67
2022/04/01 10:04:46;;;;;;;4.18;1.58;;;11.20;94.60;;;;;;5011970;28;20038;-68
2022/04/01 10:07:12;;;;;;;1.83;1.10;;;11.10;93.90;;;;;;5010909;28;20060;-68
2022/04/01 10:09:39;;;;;;;2.55;1.23;;;10.90;93.10;;;;;;5012822;28;20026;-69
2022/04/01 10:12:10;;;;;;;6.18;1.85;;;10.60;93.90;;;;;;5006249;28;20398;-70
2022/04/01 10:14:39;;;;;;;1.23;0.98;;;10.50;94.30;;;;;;5015670;28;20043;-69
2022/04/01 10:17:09;;;;;;;3.55;1.20;;;10.50;93.70;;;;;;5012060;28;20449;-69
2022/04/01 10:19:39;;;;;;;3.67;1.45;;;10.50;94.10;;;;;;5006398;28;20033;-70
2022/04/01 10:22:05;;;;;;;2.67;1.00;;;10.40;93.30;;;;;;5011416;28;20045;-69
2022/04/01 10:24:52;;;;;;;3.58;1.63;;;10.30;94.00;;;;;;5012204;28;20382;-69
2022/04/01 10:27:41;;;;;;;5.55;1.30;;;10.30;93.50;;;;;;5012839;28;20045;-70
2022/04/01 10:30:09;;;;;;;3.33;1.48;;;10.30;93.40;;;;;;5011098;28;20088;-69
2022/04/01 10:32:34;;;;;;;3.47;1.38;;;10.30;93.80;;;;;;5011114;28;20402;-68
2022/04/01 10:35:02;;;;;;;3.80;1.45;;;10.40;93.70;;;;;;5011721;28;20045;-68
2022/04/01 10:37:30;;;;;;;5.97;2.15;;;10.60;93.90;;;;;;5011601;28;20386;-70
2022/04/01 10:39:59;;;;;;;3.15;1.20;;;11.00;93.70;;;;;;5011654;28;20449;-69
2022/04/01 10:42:31;;;;;;;3.28;1.13;;;11.30;92.30;;;;;;4993567;28;20026;-71
2022/04/01 10:44:59;;;;;;;;;;;11.40;92.70;;;;;;5034064;28;20021;-72
2022/04/01 10:53:35;;;;;;;3.60;0.98;;;11.00;91.90;;;;;;5011610;28;20088;-72
2022/04/01 10:56:32;;;;;;;3.90;1.33;;;10.90;91.50;;;;;;5010927;28;20026;-73
2022/04/01 10:59:15;;;;;;;2.03;1.10;;;10.80;92.90;;;;;;4992942;28;20046;-72
2022/04/01 11:01:52;;;;;;;2.90;1.50;;;10.90;92.30;;;;;;5011680;28;20087;-70
2022/04/01 11:04:18;;;;;;;4.18;1.60;;;11.10;93.60;;;;;;5015247;28;20029;-72
2022/04/01 11:07:14;;;;;;;5.38;1.48;;;11.70;91.80;;;;;;5023249;28;20038;-71
2022/04/01 11:09:54;;;;;;;8.07;1.30;;;12.10;92.00;;;;;;5025995;28;20045;-71
2022/04/01 11:12:27;;;;;;;2.83;1.30;;;12.40;90.90;;;;;;5003478;28;20041;-71
2022/04/01 11:15:08;;;;;;;2.38;1.10;;;12.40;89.70;;;;;;5012934;28;20034;-71
2022/04/01 11:17:34;;;;;;;3.47;1.00;;;12.30;90.20;;;;;;5016066;28;20104;-71
2022/04/01 11:20:06;;;;;;;4.15;1.50;;;12.10;90.20;;;;;;5033574;28;20425;-71
2022/04/01 11:22:52;;;;;;;3.47;1.27;;;12.10;90.50;;;;;;5034794;28;20029;-70
2022/04/01 11:25:24;;;;;;;4.57;1.50;;;12.00;90.30;;;;;;5015200;28;20137;-71
2022/04/01 11:28:01;;;;;;;2.55;1.17;;;11.80;91.30;;;;;;5015264;28;20092;-71
2022/04/01 11:30:33;;;;;;;5.18;1.50;;;11.70;90.40;;;;;;5017301;28;20057;-71
2022/04/01 11:33:07;;;;;;;3.67;1.58;;;11.80;90.60;;;;;;5016783;28;20108;-72
2022/04/01 11:35:35;;;;;;;2.92;1.40;;;11.80;90.00;;;;;;5022760;28;20486;-71
2022/04/01 11:38:02;;;;;;;2.70;1.40;;;11.70;88.80;;;;;;5014666;28;20058;-72
2022/04/01 11:40:34;;;;;;;2.70;1.10;;;11.60;90.00;;;;;;5029751;28;20108;-72
2022/04/01 11:43:08;;;;;;;3.80;1.45;;;11.70;89.40;;;;;;5028966;28;20547;-73
2022/04/01 11:45:35;;;;;;;2.85;1.63;;;11.60;87.60;;;;;;5017637;28;20033;-72
2022/04/01 11:48:28;;;;;;;4.57;1.42;;;11.70;87.70;;;;;;5026422;28;20083;-73
2022/04/01 11:50:56;;;;;;;5.43;1.33;;;11.70;87.70;;;;;;5028804;28;20030;-73
2022/04/01 11:53:36;;;;;;;3.65;1.23;;;11.70;87.90;;;;;;5012686;28;20166;-72
2022/04/01 11:56:04;;;;;;;2.35;1.15;;;11.60;88.10;;;;;;5016234;28;20041;-72
2022/04/01 11:58:53;;;;;;;4.47;1.75;;;11.60;88.20;;;;;;5018802;28;20085;-74
2022/04/01 12:01:21;;;;;;;6.30;1.45;;;11.90;90.30;;;;;;5016729;28;20157;-73
2022/04/01 12:03:47;;;;;;;3.88;1.52;;;12.30;89.00;;;;;;5017389;28;20034;-74
2022/04/01 12:09:05;;;;;;;3.08;1.35;;;12.60;88.10;;;;;;5011894;28;20521;-75
2022/04/01 12:11:39;;;;;;;1.67;1.52;;;12.70;87.90;;;;;;5018906;28;20513;-74
2022/04/01 12:14:05;;;;;;;3.17;1.70;;;12.30;88.30;;;;;;5010120;28;20078;-76
2022/04/01 12:16:30;;;;;;;1.63;1.25;;;11.50;89.10;;;;;;5011621;28;20069;-75
2022/04/01 12:18:57;;;;;;;2.88;1.48;;;11.20;90.80;;;;;;5013689;28;20038;-73
2022/04/01 12:21:23;;;;;;;4.22;1.58;;;10.70;90.10;;;;;;5014393;28;20025;-72
2022/04/01 12:23:51;;;;;;;1.48;1.17;;;9.90;91.10;;;;;;5011466;28;20080;-72
2022/04/01 12:26:19;;;;;;;1.85;1.25;;;9.40;92.00;;;;;;5011767;28;20050;-72
2022/04/01 12:28:49;;;;;;;3.30;1.40;;;9.20;91.70;;;;;;5012525;28;20401;-71
2022/04/01 12:31:27;;;;;;;4.25;1.58;;;8.90;92.40;;;;;;5013591;28;20022;-71
2022/04/01 12:33:58;;;;;;;3.47;1.25;;;9.00;92.10;;;;;;5012451;28;20509;-69
2022/04/01 12:36:32;;;;;;;2.10;1.40;;;9.00;92.30;;;;;;5018027;28;20022;-70
2022/04/01 12:39:13;;;;;;;3.17;1.30;;;8.90;92.30;;;;;;5024959;28;20481;-71
2022/04/01 12:41:59;;;;;;;2.90;1.50;;;8.80;92.10;;;;;;5022023;28;20026;-70
2022/04/01 12:44:36;;;;;;;4.72;1.30;;;8.70;92.40;;;;;;5016459;28;20490;-71
2022/04/01 12:47:05;;;;;;;3.65;1.58;;;8.70;92.40;;;;;;5003299;28;20038;-71
2022/04/01 12:49:33;;;;;;;4.25;1.60;;;8.80;92.80;;;;;;4996696;28;20076;-70
2022/04/01 12:52:12;;;;;;;3.83;1.30;;;8.70;93.20;;;;;;5012322;28;20030;-72
2022/04/01 12:54:43;;;;;;;3.58;1.75;;;8.50;93.30;;;;;;5008412;28;20127;-70
2022/04/01 12:57:13;;;;;;;3.35;1.50;;;8.30;93.30;;;;;;5012858;28;20034;-68
2022/04/01 12:59:45;;;;;;;18.83;2.08;;;7.90;93.60;;;;;;5011198;28;20030;-70
2022/04/01 13:02:16;;;;;;;2.20;1.33;;;7.70;93.80;;;;;;5013013;28;20022;-73
2022/04/01 13:04:44;;;;;;;3.27;1.37;;;7.50;94.70;;;;;;5013179;28;20030;-70
2022/04/01 13:07:33;;;;;;;3.03;1.90;;;7.50;94.80;;;;;;5016330;28;20116;-70
2022/04/01 13:10:01;;;;;;;4.25;1.35;;;7.60;95.50;;;;;;5015950;28;20038;-71
2022/04/01 13:12:34;;;;;;;1.60;1.17;;;7.80;95.00;;;;;;5008684;28;20052;-70
2022/04/01 13:15:04;;;;;;;3.00;1.27;;;7.80;94.50;;;;;;5014600;28;20096;-70
2022/04/01 13:17:41;;;;;;;3.60;1.33;;;7.70;95.10;;;;;;5012293;28;20029;-68
2022/04/01 13:20:08;;;;;;;6.53;1.50;;;7.60;96.10;;;;;;5009891;28;20076;-69
2022/04/01 13:22:34;;;;;;;3.28;1.40;;;7.60;95.50;;;;;;5013292;28;20451;-70
2022/04/01 13:25:00;;;;;;;3.25;1.80;;;7.60;95.30;;;;;;5013218;28;20061;-71